Miami, FL (33159)

2:26 PM EDT on July 02, 2015 (GMT -0400)
DV Floral Group | | Change Station
CLOSE
Current Station
Personal Weather Station
Location: Miami, FL
Elevation: 26 ft
Nearby Weather Stations

Elev 26 ft 25.79 °N, 80.35 °W | Updated 2 minutes ago

Partly Cloudy
Partly Cloudy
88.6 °F
Feels Like 97 °F
N
12.0
Wind Variable Wind from ESE
Gusts 18.0 mph

Today
High -- | Low -- °F
--% Chance of Precip.
Yesterday
High -- | Low -- °F
Precip. -- in
6:33 AM 8:16 PM
Waxing Gibbous, 99% visible
Pressure 30.11 in
Visibility 10.0 miles
Clouds Few 4000 ft
Few 25000 ft
Heat Index 97 °F
Dew Point 74 °F
Humidity 62%
Rainfall 0.00 in
Snow Depth Not available.
UV 15 out of 12
Pollen 4.00 out of 12
Air Quality Not available.
Flu Activity Not available.
METAR KMIA 021753Z COR 14008KT 10SM FEW040 FEW250 33/21 A3011 RMK AO2 SLP195 TCU DSNT SE 60007 T03280211 10328 20267 58006

More Conditions Fewer Conditions

Pressure 30.11 in
Visibility 10.0 miles
Clouds Few 4000 ft
Few 25000 ft
Heat Index 97 °F
Dew Point 74 °F
Humidity 62%
Rainfall 0.00 in
Snow Depth Not available.
UV 15 out of 12
Pollen 4.00 out of 12
Air Quality Not available.
Flu Activity Not available.
METAR KMIA 021753Z COR 14008KT 10SM FEW040 FEW250 33/21 A3011 RMK AO2 SLP195 TCU DSNT SE 60007 T03280211 10328 20267 58006

More Conditions Fewer Conditions

10-Day Weather Forecast

×

Almanac

Astronomy

Jul. 02, 2015 Rise Set
Actual Time
Civil Twilight
Nautical Twilight
Astronomical Twilight
Moon
Length of Visible Light
Length of Day
Tomorrow will be .
, % of the Moon is Illuminated

Today's Extremes

State Highs State Lows

Community

WunderPhotos

Upload Photos

1,834,510 photos uploaded!

WunderBlogs® & News

Nearby

Air Quality

  Air Quality AQ Index Pollutant
Not available.

Snow Depth

Station Depth Elevation

Earthquake Activity

City Distance Mag. Time & Date
Minimum magnitude displayed is 2.5.

Coastal Water Temperatures

Place Temperature

Stations

Nearby Weather Stations

Station Location Temp. Windchill Dew Point Humidity Wind Precip. Elev Updated Type